Nearby METAR Reports

 

CYYY - Mont Joli Airpor, Quebec, Canada
Distance from station: NE 44km
Mise à jour: Thu, 29-Jun-2017 5:00am EDT
Few Clouds
Few Clouds
 Wind from SSO
Vent: SSO 13 km/h
Température: 12°C
Point de rosée: 9°C
Humidité: 82%
Baromètre: 1013.5 hPa
Clouds: Few Clouds
Visibility: 24 km
Cloud details: Few Clouds 3048 m
2017/06/29 09:00 CYYY 290900Z 20007KT 15SM FEW100 12/09 A2993 RMK AC1 SLP138
CWZS - Amqui, Quebec, Canada
Distance from station: E 94km
Mise à jour: Thu, 29-Jun-2017 5:00am EDT

 Wind from S
Vent: S 4 km/h
Température: 8°C
Point de rosée: 8°C
Humidité: 100%
2017/06/29 09:00 CWZS 290900Z AUTO 18002KT 08/08 RMK AO1 SLP139 T00820079 53006
 
CWQO - Ile Bicquette, Quebec, Canada
Distance from station: ONO 15km
Mise à jour: Thu, 29-Jun-2017 5:00am EDT

 Wind from OSO
Vent: OSO 19 km/h, Rafale: 28 km/h
Température: 8°C
Facteur vent: 4°C
Point de rosée: 7°C
Humidité: 93%
2017/06/29 09:00 CWQO 290900Z AUTO 24010G15KT 08/07 RMK AO1 T00840071
CWNH - Riviere Du Loup, Quebec, Canada
Distance from station: SO 90km
Mise à jour: Thu, 29-Jun-2017 5:00am EDT

 Wind from S
Vent: S 6 km/h
Température: 12°C
Point de rosée: 10°C
Humidité: 88%
2017/06/29 09:00 CWNH 290900Z AUTO 18003KT 12/10 RMK AO1 SLP144 T01200104 52011
 
CWAF - Ile Rouge(Maps), Quebec, Canada
Distance from station: OSO 70km
Mise à jour: Thu, 29-Jun-2017 5:00am EDT

 Wind from SO
Vent: SO 4 km/h
Température: 10°C
Point de rosée: 9°C
Humidité: 94%
2017/06/29 09:00 CWAF 290900Z AUTO 22002KT 10/09 RMK AO1 T01000091
CYBC - Baie Comeau Airp, Quebec, Canada
Distance from station: NNE 90km
Mise à jour: Thu, 29-Jun-2017 5:03am EDT
Fog, Few clouds
Fog, Few clouds
 Wind from NO
Vent: NO 6 km/h
Température: 8°C
Point de rosée: 7°C
Humidité: 93%
Baromètre: 1012.9 hPa
Résumé: Fog
Clouds: Few Clouds
Visibility: 2 km
Cloud details: Few Clouds 61 m
2017/06/29 09:03 CYBC 290903Z AUTO 31003KT 250V320 1/2SM R10/2600VP6000FT/ FG FEW002 08/07 A2991 RMK SLP131